createdAt,value
2018-12-13T00:00:30.349Z,17.60
2018-12-13T00:03:05.600Z,18.90
2018-12-13T00:05:39.725Z,18.80
2018-12-13T00:08:14.477Z,20.23
2018-12-13T00:10:48.053Z,18.60
2018-12-13T00:13:21.046Z,18.67
2018-12-13T00:15:54.663Z,21.87
2018-12-13T00:18:32.295Z,17.53
2018-12-13T00:21:05.227Z,18.80
2018-12-13T00:23:38.075Z,19.93
2018-12-13T00:26:13.901Z,18.13
2018-12-13T00:28:48.756Z,19.37
2018-12-13T00:31:24.202Z,22.20
2018-12-13T00:34:03.811Z,19.20
2018-12-13T00:36:39.788Z,22.80
2018-12-13T00:39:23.641Z,22.77
2018-12-13T00:41:58.949Z,21.43
2018-12-13T00:44:32.808Z,22.37
2018-12-13T00:47:08.708Z,25.27
2018-12-13T00:49:47.457Z,23.27
2018-12-13T00:52:20.484Z,24.90
2018-12-13T00:54:56.760Z,24.63
2018-12-13T00:57:30.916Z,23.50
2018-12-13T01:00:06.262Z,22.70
2018-12-13T01:02:39.484Z,22.93
2018-12-13T01:05:15.408Z,23.63
2018-12-13T01:07:49.451Z,23.33
2018-12-13T01:10:23.440Z,22.97
2018-12-13T01:12:57.756Z,24.80
2018-12-13T01:15:34.265Z,25.27
2018-12-13T01:18:09.017Z,24.50
2018-12-13T01:20:43.377Z,24.17
2018-12-13T01:23:18.286Z,23.30
2018-12-13T01:25:53.746Z,23.87
2018-12-13T01:28:28.618Z,26.70
2018-12-13T01:31:02.658Z,26.70
2018-12-13T01:33:45.305Z,29.43
2018-12-13T01:36:20.103Z,26.87
2018-12-13T01:38:54.682Z,28.52
2018-12-13T01:41:28.762Z,27.73
2018-12-13T01:44:02.937Z,28.63
2018-12-13T01:46:36.727Z,26.37
2018-12-13T01:49:13.780Z,27.23
2018-12-13T01:51:47.547Z,28.17
2018-12-13T01:54:20.445Z,29.80
2018-12-13T01:56:57.620Z,30.90
2018-12-13T01:59:34.039Z,30.37
2018-12-13T02:02:07.718Z,29.90
2018-12-13T02:04:46.381Z,28.57
2018-12-13T02:07:20.788Z,34.57
2018-12-13T02:09:58.444Z,30.70
2018-12-13T02:12:34.104Z,32.40
2018-12-13T02:15:25.590Z,33.27
2018-12-13T02:17:59.807Z,30.70
2018-12-13T02:20:38.855Z,32.47
2018-12-13T02:23:14.533Z,28.67
2018-12-13T02:25:50.073Z,31.33
2018-12-13T02:28:26.066Z,30.47
2018-12-13T02:31:03.340Z,32.00
2018-12-13T02:33:38.164Z,27.67
2018-12-13T02:36:14.384Z,25.87
2018-12-13T02:38:47.791Z,25.63
2018-12-13T02:41:22.521Z,26.67
2018-12-13T02:43:57.327Z,26.63
2018-12-13T02:46:32.520Z,24.30
2018-12-13T02:49:10.644Z,26.87
2018-12-13T02:51:47.238Z,24.80
2018-12-13T02:54:20.631Z,25.23
2018-12-13T02:56:54.890Z,24.47
2018-12-13T02:59:27.865Z,28.97
2018-12-13T03:02:00.956Z,25.83
2018-12-13T03:04:34.200Z,26.23
2018-12-13T03:07:13.716Z,25.20
2018-12-13T03:09:48.009Z,27.10
2018-12-13T03:12:24.435Z,29.77
2018-12-13T03:15:04.432Z,28.67
2018-12-13T03:17:38.574Z,27.90
2018-12-13T03:20:15.370Z,31.03
2018-12-13T03:22:50.382Z,32.60
2018-12-13T03:25:25.274Z,34.13
2018-12-13T03:27:59.631Z,31.73
2018-12-13T03:30:34.338Z,32.70
2018-12-13T03:33:09.158Z,35.23
2018-12-13T03:35:43.608Z,36.90
2018-12-13T03:38:17.451Z,35.27
2018-12-13T03:40:51.308Z,33.80
2018-12-13T03:43:25.618Z,38.33
2018-12-13T03:45:58.714Z,34.17
2018-12-13T03:48:31.867Z,35.10
2018-12-13T03:51:05.218Z,37.43
2018-12-13T03:53:38.151Z,37.77
2018-12-13T03:56:11.021Z,37.13
2018-12-13T03:58:44.525Z,36.73
2018-12-13T04:01:17.365Z,40.77
2018-12-13T04:03:50.619Z,36.63
2018-12-13T04:06:23.969Z,41.37
2018-12-13T04:08:56.865Z,34.47
2018-12-13T04:11:30.036Z,39.40
2018-12-13T04:14:03.536Z,35.10
2018-12-13T04:16:36.536Z,35.27
2018-12-13T04:19:09.426Z,37.50
2018-12-13T04:21:42.898Z,38.47
2018-12-13T04:24:16.167Z,38.10
2018-12-13T04:26:50.035Z,42.27
2018-12-13T04:29:23.600Z,41.13
2018-12-13T04:31:56.908Z,39.47
2018-12-13T04:34:29.914Z,35.43
2018-12-13T04:37:03.462Z,39.93
2018-12-13T04:39:36.645Z,38.40
2018-12-13T04:42:09.603Z,32.07
2018-12-13T04:44:43.148Z,30.80
2018-12-13T04:47:16.145Z,26.17
2018-12-13T04:49:49.651Z,23.17
2018-12-13T04:52:23.173Z,20.17
2018-12-13T04:54:56.444Z,18.00
2018-12-13T04:57:29.294Z,19.57
2018-12-13T05:00:06.139Z,19.57
2018-12-13T05:02:39.917Z,20.10
2018-12-13T05:05:13.068Z,20.93
2018-12-13T05:07:46.803Z,20.80
2018-12-13T05:10:42.192Z,21.47
2018-12-13T05:13:15.635Z,23.13
2018-12-13T05:15:48.844Z,24.17
2018-12-13T05:18:21.771Z,20.17
2018-12-13T05:21:06.713Z,24.37
2018-12-13T05:23:39.773Z,19.80
2018-12-13T05:26:12.934Z,22.93
2018-12-13T05:28:45.907Z,20.52
2018-12-13T05:31:20.490Z,20.33
2018-12-13T05:33:53.713Z,22.90
2018-12-13T05:36:26.684Z,23.63
2018-12-13T05:39:00.573Z,23.27
2018-12-13T05:41:33.964Z,27.00
2018-12-13T05:44:07.304Z,27.07
2018-12-13T05:46:41.924Z,29.77
2018-12-13T05:49:14.856Z,27.00
2018-12-13T05:51:47.862Z,27.03
2018-12-13T05:54:21.172Z,28.77
2018-12-13T05:56:54.225Z,32.43
2018-12-13T05:59:27.171Z,32.63
2018-12-13T06:02:00.248Z,34.80
2018-12-13T06:04:33.172Z,35.30
2018-12-13T06:07:06.195Z,41.53
2018-12-13T06:09:41.777Z,39.20
2018-12-13T06:12:16.416Z,40.40
2018-12-13T06:14:51.005Z,35.90
2018-12-13T06:17:24.881Z,40.37
2018-12-13T06:19:58.418Z,39.97
2018-12-13T06:22:31.777Z,42.23
2018-12-13T06:25:05.883Z,37.67
2018-12-13T06:27:40.885Z,38.13
2018-12-13T06:30:15.389Z,42.07
2018-12-13T06:32:49.091Z,44.90
2018-12-13T06:35:22.163Z,42.03
2018-12-13T06:38:01.087Z,47.73
2018-12-13T06:40:34.677Z,50.43
2018-12-13T06:43:07.961Z,43.50
2018-12-13T06:45:40.854Z,46.07
2018-12-13T06:48:13.828Z,39.60
2018-12-13T06:50:48.389Z,41.90
2018-12-13T06:53:25.311Z,43.17
2018-12-13T06:55:59.337Z,36.87
2018-12-13T06:58:32.564Z,36.87
2018-12-13T07:01:05.795Z,38.53
2018-12-13T07:03:40.651Z,38.33
2018-12-13T07:06:15.562Z,38.87
2018-12-13T07:08:50.105Z,40.43
2018-12-13T07:11:22.981Z,35.27
2018-12-13T07:13:56.942Z,34.90
2018-12-13T07:16:30.381Z,33.63
2018-12-13T07:19:06.585Z,32.17
2018-12-13T07:21:39.696Z,32.77
2018-12-13T07:24:13.952Z,32.70
2018-12-13T07:26:48.388Z,34.80
2018-12-13T07:29:22.244Z,30.13
2018-12-13T07:31:55.713Z,27.63
2018-12-13T07:34:28.723Z,21.98
2018-12-13T07:37:02.326Z,21.37
2018-12-13T07:39:37.506Z,21.53
2018-12-13T07:42:10.516Z,20.50
2018-12-13T07:44:44.156Z,20.42
2018-12-13T07:47:19.302Z,20.17
2018-12-13T07:49:52.899Z,18.52
2018-12-13T07:52:30.473Z,19.33
2018-12-13T07:55:03.892Z,18.40
2018-12-13T07:57:37.152Z,17.37
2018-12-13T08:00:11.008Z,20.00
2018-12-13T08:02:47.045Z,16.50
2018-12-13T08:05:21.262Z,16.87
2018-12-13T08:07:58.583Z,18.63
2018-12-13T08:10:32.384Z,16.97
2018-12-13T08:13:05.688Z,17.60
2018-12-13T08:15:40.380Z,18.90
2018-12-13T08:18:13.454Z,16.45
2018-12-13T08:20:46.778Z,19.47
2018-12-13T08:23:20.915Z,15.17
2018-12-13T08:25:54.708Z,16.03
2018-12-13T08:28:29.620Z,14.50
2018-12-13T08:31:04.963Z,15.47
2018-12-13T08:33:38.516Z,15.27
2018-12-13T08:36:11.938Z,14.83
2018-12-13T08:38:45.315Z,13.03
2018-12-13T08:41:19.407Z,13.47
2018-12-13T08:43:52.888Z,14.90
2018-12-13T08:46:26.568Z,15.87
2018-12-13T08:48:59.737Z,14.15
2018-12-13T08:51:33.348Z,16.60
2018-12-13T08:54:06.622Z,13.60
2018-12-13T08:56:39.745Z,16.73
2018-12-13T08:59:13.388Z,14.50
2018-12-13T09:01:46.445Z,12.45
2018-12-13T09:04:19.143Z,14.90
2018-12-13T09:06:57.670Z,13.73
2018-12-13T09:09:32.475Z,12.37
2018-12-13T09:12:06.461Z,12.27
2018-12-13T09:14:44.505Z,14.63
2018-12-13T09:17:20.010Z,14.50
2018-12-13T09:19:55.026Z,17.77
2018-12-13T09:22:29.451Z,13.90
2018-12-13T09:25:05.341Z,15.10
2018-12-13T09:27:39.087Z,19.53
2018-12-13T09:30:13.119Z,12.43
2018-12-13T09:32:46.117Z,14.20
2018-12-13T09:35:18.745Z,14.07
2018-12-13T09:37:53.138Z,12.23
2018-12-13T09:40:26.977Z,14.00
2018-12-13T09:42:59.725Z,13.50
2018-12-13T09:45:32.486Z,16.23
2018-12-13T09:48:06.478Z,16.37
2018-12-13T09:50:41.473Z,13.80
2018-12-13T09:53:16.420Z,14.60
2018-12-13T09:55:49.277Z,13.60
2018-12-13T09:58:23.560Z,11.12
2018-12-13T10:00:57.144Z,13.33
2018-12-13T10:03:40.756Z,11.47
2018-12-13T10:06:14.211Z,11.10
2018-12-13T10:08:46.911Z,12.93
2018-12-13T10:11:21.720Z,13.27
2018-12-13T10:13:55.640Z,12.53
2018-12-13T10:16:28.445Z,12.15
2018-12-13T10:19:02.111Z,11.23
2018-12-13T10:21:34.792Z,11.20
2018-12-13T10:24:08.029Z,11.63
2018-12-13T10:26:41.412Z,12.77
2018-12-13T10:29:15.629Z,11.20
2018-12-13T10:31:50.048Z,13.40
2018-12-13T10:34:25.697Z,10.60
2018-12-13T10:37:01.886Z,12.30
2018-12-13T10:39:35.408Z,10.97
2018-12-13T10:42:08.746Z,10.87
2018-12-13T10:44:42.273Z,12.73
2018-12-13T10:47:15.008Z,10.07
2018-12-13T10:49:48.980Z,9.50
2018-12-13T10:52:21.777Z,9.50
2018-12-13T10:54:54.834Z,11.17
2018-12-13T10:57:27.649Z,11.13
2018-12-13T11:00:03.454Z,10.03
2018-12-13T11:03:34.675Z,10.20
2018-12-13T11:06:09.814Z,9.48
2018-12-13T11:08:46.703Z,10.07
2018-12-13T11:11:22.121Z,11.40
2018-12-13T11:13:55.792Z,10.77
2018-12-13T11:16:33.214Z,9.93
2018-12-13T11:19:07.398Z,9.93
2018-12-13T11:21:40.232Z,8.40
2018-12-13T11:24:13.963Z,8.53
2018-12-13T11:26:48.084Z,10.33
2018-12-13T11:29:55.431Z,9.77
2018-12-13T11:32:28.162Z,8.73
2018-12-13T11:35:05.208Z,9.33
2018-12-13T11:37:39.679Z,7.00
2018-12-13T11:40:13.096Z,7.23
2018-12-13T11:42:50.816Z,6.60
2018-12-13T11:45:25.536Z,7.97
2018-12-13T11:47:59.374Z,8.30
2018-12-13T11:50:33.064Z,5.90
2018-12-13T11:53:06.376Z,6.37
2018-12-13T11:55:40.519Z,5.43
2018-12-13T11:58:17.481Z,7.90
2018-12-13T12:00:50.124Z,5.60
2018-12-13T12:03:23.026Z,7.13
2018-12-13T12:05:57.437Z,6.73
2018-12-13T12:08:30.660Z,7.33
2018-12-13T12:11:03.349Z,7.33
2018-12-13T12:13:39.488Z,6.93
2018-12-13T12:16:11.974Z,7.43
2018-12-13T12:18:44.600Z,7.60
2018-12-13T12:21:20.738Z,6.67
2018-12-13T12:23:53.323Z,6.17
2018-12-13T12:26:27.202Z,10.03
2018-12-13T12:29:00.673Z,7.80
2018-12-13T12:31:33.940Z,6.87
2018-12-13T12:34:10.705Z,5.77
2018-12-13T12:36:46.348Z,6.57
2018-12-13T12:39:21.077Z,5.53
2018-12-13T12:41:53.831Z,6.53
2018-12-13T12:44:33.536Z,5.13
2018-12-13T12:47:07.486Z,6.17
2018-12-13T12:49:40.648Z,6.73
2018-12-13T12:52:15.248Z,5.70
2018-12-13T12:54:50.051Z,6.00
2018-12-13T12:57:29.231Z,9.20
2018-12-13T13:00:07.049Z,6.13
2018-12-13T13:02:40.992Z,6.07
2018-12-13T13:05:18.726Z,5.77
2018-12-13T13:07:53.095Z,6.67
2018-12-13T13:10:25.871Z,5.70
2018-12-13T13:12:58.657Z,7.53
2018-12-13T13:15:32.810Z,7.47
2018-12-13T13:18:06.459Z,6.00
2018-12-13T13:20:41.023Z,6.33
2018-12-13T13:23:16.659Z,5.50
2018-12-13T13:25:50.201Z,6.53
2018-12-13T13:28:22.938Z,6.40
2018-12-13T13:30:56.173Z,6.43
2018-12-13T13:33:30.463Z,12.80
2018-12-13T13:36:03.251Z,15.33
2018-12-13T13:38:37.969Z,13.07
2018-12-13T13:41:14.384Z,17.63
2018-12-13T13:43:47.561Z,12.67
2018-12-13T13:46:25.349Z,12.53
2018-12-13T13:48:58.266Z,14.07
2018-12-13T13:51:32.005Z,14.07
2018-12-13T13:54:05.871Z,14.73
2018-12-13T13:56:39.268Z,15.47
2018-12-13T13:59:15.461Z,15.30
2018-12-13T14:01:49.179Z,13.20
2018-12-13T14:04:23.614Z,12.77
2018-12-13T14:06:57.842Z,11.98
2018-12-13T14:09:30.688Z,12.10
2018-12-13T14:12:05.619Z,12.63
2018-12-13T14:14:40.323Z,12.73
2018-12-13T14:17:15.660Z,13.50
2018-12-13T14:19:49.727Z,12.50
2018-12-13T14:22:24.615Z,12.90
2018-12-13T14:24:57.410Z,12.47
2018-12-13T14:27:33.550Z,11.53
2018-12-13T14:30:09.335Z,12.13
2018-12-13T14:32:42.553Z,11.43
2018-12-13T14:35:17.724Z,11.03
2018-12-13T14:37:50.320Z,12.20
2018-12-13T14:40:23.058Z,12.00
2018-12-13T14:42:58.590Z,11.60
2018-12-13T14:45:32.634Z,12.33
2018-12-13T14:48:09.101Z,11.80
2018-12-13T14:50:43.302Z,12.60
2018-12-13T14:53:18.818Z,13.53
2018-12-13T14:55:52.837Z,12.23
2018-12-13T14:58:26.070Z,11.30
2018-12-13T15:00:59.453Z,13.13
2018-12-13T15:03:33.919Z,12.07
2018-12-13T15:06:07.351Z,10.93
2018-12-13T15:08:40.864Z,13.07
2018-12-13T15:11:14.681Z,13.30
2018-12-13T15:13:48.844Z,12.57
2018-12-13T15:16:23.620Z,14.13
2018-12-13T15:18:57.836Z,13.53
2018-12-13T15:21:32.240Z,12.87
2018-12-13T15:24:05.700Z,12.30
2018-12-13T15:26:41.662Z,12.70
2018-12-13T15:29:15.964Z,14.80
2018-12-13T15:31:49.865Z,14.90
2018-12-13T15:34:23.644Z,14.10
2018-12-13T15:36:56.846Z,11.70
2018-12-13T15:39:29.605Z,15.60
2018-12-13T15:42:10.096Z,13.43
2018-12-13T15:44:46.494Z,17.80
2018-12-13T15:47:19.951Z,14.20
2018-12-13T15:49:58.382Z,17.70
2018-12-13T15:52:36.078Z,15.87
2018-12-13T15:55:09.197Z,14.90
2018-12-13T15:57:43.467Z,15.43
2018-12-13T16:00:20.864Z,16.67
2018-12-13T16:02:55.926Z,14.47
2018-12-13T16:05:30.516Z,12.57
2018-12-13T16:08:04.343Z,14.27
2018-12-13T16:10:39.385Z,12.93
2018-12-13T16:13:12.617Z,13.60
2018-12-13T16:15:45.277Z,17.27
2018-12-13T16:18:22.352Z,13.83
2018-12-13T16:20:58.087Z,15.73
2018-12-13T16:23:31.502Z,17.97
2018-12-13T16:26:06.296Z,15.30
2018-12-13T16:28:40.724Z,15.33
2018-12-13T16:31:15.045Z,16.60
2018-12-13T16:33:49.216Z,14.03
2018-12-13T16:36:22.373Z,16.50
2018-12-13T16:38:57.294Z,15.70
2018-12-13T16:41:32.573Z,18.53
2018-12-13T16:44:07.759Z,18.17
2018-12-13T16:46:41.547Z,15.80
2018-12-13T16:49:14.333Z,16.30
2018-12-13T16:51:47.393Z,18.63
2018-12-13T16:54:20.013Z,17.13
2018-12-13T16:56:53.652Z,17.30
2018-12-13T16:59:27.447Z,17.87
2018-12-13T17:02:02.329Z,18.77
2018-12-13T17:04:37.457Z,17.63
2018-12-13T17:07:11.919Z,17.43
2018-12-13T17:09:47.029Z,16.50
2018-12-13T17:12:24.206Z,18.33
2018-12-13T17:14:58.288Z,18.33
2018-12-13T17:17:31.165Z,20.83
2018-12-13T17:20:06.480Z,18.70
2018-12-13T17:22:47.414Z,20.37
2018-12-13T17:25:20.031Z,18.20
2018-12-13T17:27:56.577Z,19.40
2018-12-13T17:30:30.791Z,17.40
2018-12-13T17:36:15.687Z,18.43
2018-12-13T17:38:48.391Z,19.40
2018-12-13T17:41:21.079Z,15.93
2018-12-13T17:43:56.863Z,18.73
2018-12-13T17:46:31.114Z,18.70
2018-12-13T17:49:06.887Z,15.40
2018-12-13T17:51:42.872Z,16.67
2018-12-13T17:54:17.399Z,17.10
2018-12-13T17:56:51.777Z,17.90
2018-12-13T17:59:25.998Z,17.07
2018-12-13T18:02:02.152Z,16.70
2018-12-13T18:04:36.397Z,21.33
2018-12-13T18:07:13.931Z,18.43
2018-12-13T18:09:46.654Z,21.20
2018-12-13T18:12:19.258Z,18.13
2018-12-13T18:14:52.753Z,18.20
2018-12-13T18:17:26.378Z,18.63
2018-12-13T18:19:59.435Z,19.60
2018-12-13T18:22:34.307Z,20.27
2018-12-13T18:25:08.134Z,20.40
2018-12-13T18:27:48.790Z,20.00
2018-12-13T18:30:24.623Z,24.17
2018-12-13T18:33:03.383Z,20.97
2018-12-13T18:35:37.095Z,22.43
2018-12-13T18:38:14.187Z,20.87
2018-12-13T18:40:49.504Z,21.83
2018-12-13T18:43:23.294Z,18.90
2018-12-13T18:45:59.306Z,21.63
2018-12-13T18:48:33.704Z,18.97
2018-12-13T18:51:08.746Z,19.23
2018-12-13T18:53:42.844Z,24.87
2018-12-13T18:56:17.417Z,20.07
2018-12-13T18:58:55.380Z,19.57
2018-12-13T19:01:46.715Z,19.67
2018-12-13T19:04:30.842Z,20.17
2018-12-13T19:07:07.513Z,18.93
2018-12-13T19:09:53.359Z,19.30
2018-12-13T19:12:38.916Z,18.83
2018-12-13T19:15:33.781Z,17.30
2018-12-13T19:18:10.760Z,17.40
2018-12-13T19:20:49.375Z,21.10
2018-12-13T19:23:22.337Z,17.45
2018-12-13T19:25:58.148Z,19.83
2018-12-13T19:28:32.728Z,17.48
2018-12-13T19:31:08.718Z,18.90
2018-12-13T19:33:47.974Z,16.37
2018-12-13T19:36:21.803Z,19.12
2018-12-13T19:38:57.489Z,19.77
2018-12-13T19:41:49.004Z,18.23
2018-12-13T19:44:23.913Z,17.27
2018-12-13T19:46:58.670Z,19.03
2018-12-13T19:49:41.247Z,19.60
2018-12-13T19:52:14.070Z,17.93
2018-12-13T19:54:48.622Z,19.07
2018-12-13T19:57:23.834Z,15.37
2018-12-13T19:59:58.784Z,16.83
2018-12-13T20:02:33.801Z,19.93
2018-12-13T20:05:09.269Z,18.50
2018-12-13T20:07:42.959Z,18.13
2018-12-13T20:10:19.491Z,18.23
2018-12-13T20:12:52.919Z,17.37
2018-12-13T20:15:26.381Z,16.70
2018-12-13T20:18:02.994Z,18.53
2018-12-13T20:20:37.219Z,20.43
2018-12-13T20:23:10.529Z,15.43
2018-12-13T20:25:49.264Z,16.33
2018-12-13T20:28:22.999Z,15.53
2018-12-13T20:30:58.063Z,17.13
2018-12-13T20:33:32.871Z,17.00
2018-12-13T20:36:08.853Z,18.93
2018-12-13T20:38:42.886Z,19.73
2018-12-13T20:41:16.723Z,20.60
2018-12-13T20:43:52.934Z,18.73
2018-12-13T20:46:27.171Z,19.20
2018-12-13T20:49:05.345Z,20.83
2018-12-13T20:51:39.112Z,19.97
2018-12-13T20:54:12.053Z,18.00
2018-12-13T20:56:45.934Z,17.93
2018-12-13T20:59:20.319Z,20.43
2018-12-13T21:01:53.150Z,20.50
2018-12-13T21:04:27.831Z,19.43
2018-12-13T21:07:06.020Z,21.43
2018-12-13T21:09:39.099Z,23.20
2018-12-13T21:12:17.093Z,22.52
2018-12-13T21:14:52.656Z,22.63
2018-12-13T21:17:27.277Z,21.73
2018-12-13T21:20:01.270Z,24.67
2018-12-13T21:22:36.464Z,22.93
2018-12-13T21:25:10.746Z,21.87
2018-12-13T21:27:46.325Z,24.70
2018-12-13T21:30:19.413Z,23.80
2018-12-13T21:32:52.211Z,24.50
2018-12-13T21:35:27.361Z,22.77
2018-12-13T21:38:00.198Z,22.40
2018-12-13T21:40:35.250Z,21.17
2018-12-13T21:43:10.310Z,22.87
2018-12-13T21:45:44.031Z,22.92
2018-12-13T21:51:04.626Z,21.92
2018-12-13T21:53:42.453Z,20.00
2018-12-13T21:56:15.668Z,23.80
2018-12-13T21:58:48.872Z,22.90
2018-12-13T22:01:29.448Z,19.77
2018-12-13T22:04:03.746Z,23.70
2018-12-13T22:06:38.049Z,23.13
2018-12-13T22:09:14.163Z,23.60
2018-12-13T22:11:47.039Z,24.60
2018-12-13T22:14:21.171Z,23.07
2018-12-13T22:16:56.424Z,21.97
2018-12-13T22:19:30.144Z,23.30
2018-12-13T22:22:03.753Z,25.73
2018-12-13T22:24:37.057Z,23.87
2018-12-13T22:27:11.677Z,23.73
2018-12-13T22:29:46.001Z,26.70
2018-12-13T22:32:19.547Z,25.60
2018-12-13T22:34:52.390Z,24.67
2018-12-13T22:37:25.247Z,23.80
2018-12-13T22:39:58.813Z,23.55
2018-12-13T22:42:31.573Z,22.87
2018-12-13T22:45:13.282Z,22.35
2018-12-13T22:47:46.966Z,26.17
2018-12-13T22:50:19.821Z,24.27
2018-12-13T22:52:52.776Z,23.70
2018-12-13T22:55:25.485Z,28.83
2018-12-13T22:57:58.079Z,29.63
2018-12-13T23:00:31.301Z,22.90
2018-12-13T23:03:08.550Z,25.23
2018-12-13T23:05:41.376Z,25.03
2018-12-13T23:08:15.425Z,24.60
2018-12-13T23:10:48.313Z,24.33
2018-12-13T23:13:20.949Z,27.60
2018-12-13T23:15:54.810Z,23.27
2018-12-13T23:18:28.552Z,25.73
2018-12-13T23:21:01.358Z,27.40
2018-12-13T23:23:38.684Z,24.03
2018-12-13T23:26:12.875Z,26.90
2018-12-13T23:28:46.214Z,27.30
2018-12-13T23:31:21.404Z,25.20
2018-12-13T23:33:58.431Z,25.57
2018-12-13T23:36:31.210Z,26.43
2018-12-13T23:39:04.769Z,27.53
2018-12-13T23:41:39.403Z,24.27
2018-12-13T23:44:19.556Z,26.27
2018-12-13T23:46:54.021Z,25.63
2018-12-13T23:49:27.815Z,27.63
2018-12-13T23:52:00.411Z,24.65
2018-12-13T23:54:33.563Z,23.93
2018-12-13T23:57:07.025Z,24.33
2018-12-13T23:59:42.380Z,22.27
